createdAt,value
2022-09-12T00:01:46.499Z,8.30
2022-09-12T00:06:48.461Z,9.35
2022-09-12T00:11:50.331Z,9.38
2022-09-12T00:16:52.536Z,9.63
2022-09-12T00:21:55.034Z,9.02
2022-09-12T00:26:56.874Z,9.43
2022-09-12T00:31:58.711Z,9.55
2022-09-12T00:37:00.527Z,10.77
2022-09-12T00:42:02.693Z,9.90
2022-09-12T00:47:11.542Z,9.82
2022-09-12T00:52:27.058Z,10.50
2022-09-12T00:57:52.598Z,10.40
2022-09-12T01:03:01.252Z,10.63
2022-09-12T01:08:04.685Z,11.35
2022-09-12T01:13:09.264Z,10.80
2022-09-12T01:18:16.632Z,10.90
2022-09-12T01:23:29.659Z,11.05
2022-09-12T01:29:16.086Z,10.52
2022-09-12T01:34:26.463Z,11.35
2022-09-12T01:44:57.494Z,10.85
2022-09-12T01:50:14.008Z,11.38
2022-09-12T01:55:49.946Z,10.70
2022-09-12T02:01:23.375Z,11.45
2022-09-12T02:06:52.394Z,11.07
2022-09-12T02:11:58.480Z,12.05
2022-09-12T02:17:12.210Z,10.60
2022-09-12T02:22:18.254Z,10.70
2022-09-12T02:27:30.636Z,10.68
2022-09-12T02:33:01.510Z,11.20
2022-09-12T02:38:03.258Z,11.55
2022-09-12T02:43:06.437Z,11.15
2022-09-12T02:48:21.025Z,11.23
2022-09-12T02:53:23.365Z,12.20
2022-09-12T02:58:29.388Z,11.20
2022-09-12T03:03:43.661Z,12.23
2022-09-12T03:08:56.969Z,11.90
2022-09-12T03:14:07.554Z,11.98
2022-09-12T03:19:34.435Z,12.77
2022-09-12T03:24:43.352Z,11.93
2022-09-12T03:29:48.029Z,13.65
2022-09-12T03:34:49.895Z,12.30
2022-09-12T03:39:51.753Z,13.13
2022-09-12T03:44:53.589Z,13.18
2022-09-12T03:49:55.408Z,13.38
2022-09-12T03:54:57.238Z,13.30
2022-09-12T03:59:59.102Z,12.23
2022-09-12T04:05:01.099Z,12.77
2022-09-12T04:10:03.606Z,13.65
2022-09-12T04:15:07.608Z,14.93
2022-09-12T04:20:09.652Z,14.63
2022-09-12T04:25:13.277Z,14.68
2022-09-12T04:30:15.141Z,15.20
2022-09-12T04:35:17.157Z,14.88
2022-09-12T04:40:19.393Z,14.93
2022-09-12T04:45:21.204Z,16.92
2022-09-12T04:50:23.014Z,15.35
2022-09-12T04:55:25.436Z,15.90
2022-09-12T05:00:27.725Z,14.52
2022-09-12T05:05:29.532Z,15.43
2022-09-12T05:10:31.389Z,15.27
2022-09-12T05:15:33.426Z,15.65
2022-09-12T05:20:35.280Z,14.38
2022-09-12T05:25:37.253Z,14.30
2022-09-12T05:30:39.128Z,15.02
2022-09-12T05:35:41.792Z,14.75
2022-09-12T05:40:43.774Z,15.05
2022-09-12T05:45:45.621Z,13.57
2022-09-12T05:50:47.534Z,15.63
2022-09-12T05:55:49.435Z,14.95
2022-09-12T06:00:51.241Z,14.32
2022-09-12T06:05:53.043Z,15.50
2022-09-12T06:11:02.271Z,14.70
2022-09-12T06:16:06.367Z,14.45
2022-09-12T06:21:13.134Z,14.80
2022-09-12T06:26:17.160Z,14.48
2022-09-12T06:31:21.460Z,13.85
2022-09-12T06:36:28.944Z,15.05
2022-09-12T06:41:32.052Z,13.52
2022-09-12T06:46:33.938Z,14.20
2022-09-12T06:51:38.704Z,13.40
2022-09-12T06:56:40.882Z,13.98
2022-09-12T07:01:42.775Z,14.30
2022-09-12T07:06:44.974Z,13.93
2022-09-12T07:11:47.378Z,15.32
2022-09-12T07:16:49.210Z,13.43
2022-09-12T07:21:54.227Z,14.10
2022-09-12T07:27:00.329Z,13.15
2022-09-12T07:32:02.498Z,13.77
2022-09-12T07:37:04.682Z,13.57
2022-09-12T07:42:08.054Z,13.15
2022-09-12T07:47:11.950Z,12.00
2022-09-12T07:52:13.752Z,12.68
2022-09-12T07:57:15.857Z,13.25
2022-09-12T08:02:17.893Z,11.48
2022-09-12T08:07:20.177Z,11.35
2022-09-12T08:12:21.994Z,9.40
2022-09-12T08:17:23.823Z,10.52
2022-09-12T08:22:25.990Z,9.85
2022-09-12T08:27:27.790Z,8.43
2022-09-12T08:32:29.657Z,6.28
2022-09-12T08:37:32.097Z,6.00
2022-09-12T08:43:10.291Z,5.90
2022-09-12T08:48:14.198Z,7.03
2022-09-12T08:53:24.554Z,6.75
2022-09-12T08:58:29.293Z,5.95
2022-09-12T09:03:37.237Z,6.25
2022-09-12T09:08:50.770Z,5.22
2022-09-12T09:14:45.528Z,5.65
2022-09-12T09:19:59.939Z,5.07
2022-09-12T09:25:08.420Z,5.63
2022-09-12T09:30:21.713Z,4.18
2022-09-12T09:35:43.724Z,3.88
2022-09-12T09:40:57.372Z,3.72
2022-09-12T09:46:00.573Z,3.28
2022-09-12T09:51:07.183Z,4.28
2022-09-12T09:56:33.268Z,3.30
2022-09-12T10:01:35.308Z,2.72
2022-09-12T10:06:38.163Z,2.92
2022-09-12T10:11:45.169Z,2.90
2022-09-12T10:16:54.780Z,12.30
2022-09-12T10:21:57.204Z,3.28
2022-09-12T10:27:21.088Z,3.47
2022-09-12T10:32:44.009Z,2.85
2022-09-12T10:37:58.627Z,3.00
2022-09-12T10:43:02.736Z,2.00
2022-09-12T10:48:26.460Z,3.50
2022-09-12T10:53:48.596Z,2.40
2022-09-12T10:59:08.821Z,2.60
2022-09-12T11:04:36.332Z,2.73
2022-09-12T11:09:48.331Z,3.03
2022-09-12T11:15:03.426Z,1.83
2022-09-12T11:20:33.270Z,1.45
2022-09-12T11:25:39.303Z,1.30
2022-09-12T11:31:00.248Z,1.67
2022-09-12T11:36:08.897Z,1.50
2022-09-12T11:41:20.496Z,1.95
2022-09-12T11:46:34.626Z,1.92
2022-09-12T11:51:55.353Z,1.73
2022-09-12T11:57:16.853Z,1.95
2022-09-12T12:02:30.244Z,1.30
2022-09-12T12:07:45.408Z,1.77
2022-09-12T12:12:48.710Z,1.48
2022-09-12T12:18:24.508Z,1.30
2022-09-12T12:23:31.404Z,2.92
2022-09-12T12:28:42.052Z,1.10
2022-09-12T12:33:44.015Z,1.02
2022-09-12T12:38:45.974Z,0.90
2022-09-12T12:43:53.204Z,1.30
2022-09-12T12:49:28.863Z,1.10
2022-09-12T12:54:41.182Z,0.95
2022-09-12T12:59:56.260Z,1.30
2022-09-12T13:05:02.494Z,1.35
2022-09-12T13:10:07.489Z,1.15
2022-09-12T13:15:37.819Z,1.10
2022-09-12T13:20:52.377Z,1.20
2022-09-12T13:25:57.661Z,1.25
2022-09-12T13:31:24.600Z,0.90
2022-09-12T13:36:51.338Z,0.95
2022-09-12T13:42:00.819Z,0.80
2022-09-12T13:47:03.979Z,1.40
2022-09-12T13:52:17.423Z,0.93
2022-09-12T13:57:37.730Z,1.00
2022-09-12T14:02:40.293Z,1.00
2022-09-12T14:07:54.545Z,1.30
2022-09-12T14:12:57.592Z,1.20
2022-09-12T14:18:01.859Z,1.00
2022-09-12T14:23:16.508Z,1.15
2022-09-12T14:28:23.399Z,1.65
2022-09-12T14:33:26.253Z,1.42
2022-09-12T14:38:44.909Z,1.13
2022-09-12T14:43:51.288Z,1.17
2022-09-12T14:49:00.215Z,1.20
2022-09-12T14:54:02.821Z,1.50
2022-09-12T14:59:35.474Z,1.35
2022-09-12T15:04:45.362Z,1.17
2022-09-12T15:09:47.482Z,1.50
2022-09-12T15:14:49.341Z,1.40
2022-09-12T15:19:51.132Z,1.05
2022-09-12T15:24:53.426Z,1.35
2022-09-12T15:29:55.595Z,1.70
2022-09-12T15:34:57.426Z,1.65
2022-09-12T15:39:59.273Z,1.50
2022-09-12T15:45:02.785Z,1.17
2022-09-12T15:50:05.618Z,1.13
2022-09-12T15:55:16.483Z,1.15
2022-09-12T16:00:18.954Z,1.40
2022-09-12T16:05:24.443Z,1.38
2022-09-12T16:10:29.764Z,1.30
2022-09-12T16:15:31.584Z,1.20
2022-09-12T16:20:33.391Z,1.10
2022-09-12T16:25:35.280Z,1.30
2022-09-12T16:30:37.391Z,1.00
2022-09-12T16:35:39.274Z,1.20
2022-09-12T16:40:41.109Z,1.13
2022-09-12T16:45:46.967Z,0.95
2022-09-12T16:50:57.161Z,1.52
2022-09-12T16:55:59.285Z,2.05
2022-09-12T17:01:03.674Z,2.00
2022-09-12T17:06:11.355Z,7.93
2022-09-12T17:11:15.902Z,7.50
2022-09-12T17:16:17.889Z,3.53
2022-09-12T17:21:21.288Z,2.17
2022-09-12T17:26:23.276Z,1.40
2022-09-12T17:31:25.311Z,1.20
2022-09-12T17:36:28.824Z,2.65
2022-09-12T17:41:32.348Z,1.88
2022-09-12T17:46:37.240Z,1.98
2022-09-12T17:51:40.126Z,4.60
2022-09-12T17:56:43.239Z,3.72
2022-09-12T18:02:03.987Z,3.85
2022-09-12T18:12:09.176Z,6.68
2022-09-12T18:17:11.948Z,2.80
2022-09-12T18:22:13.928Z,1.77
2022-09-12T18:27:16.349Z,1.88
2022-09-12T18:32:18.388Z,1.90
2022-09-12T18:37:20.306Z,1.77
2022-09-12T18:42:22.657Z,2.08
2022-09-12T18:47:24.531Z,5.40
2022-09-12T18:52:26.453Z,4.50
2022-09-12T18:57:30.878Z,6.40
2022-09-12T19:02:32.825Z,4.65
2022-09-12T19:07:35.036Z,6.95
2022-09-12T19:12:36.980Z,4.38
2022-09-12T19:17:38.930Z,4.90
2022-09-12T19:22:41.029Z,4.30
2022-09-12T19:27:43.036Z,3.83
2022-09-12T19:32:45.241Z,3.45
2022-09-12T19:37:47.240Z,2.95
2022-09-12T19:42:49.187Z,2.72
2022-09-12T19:47:51.195Z,2.90
2022-09-12T19:52:53.434Z,2.17
2022-09-12T19:57:55.524Z,2.53
2022-09-12T20:02:57.560Z,2.35
2022-09-12T20:08:00.280Z,3.65
2022-09-12T20:13:02.510Z,3.50
2022-09-12T20:18:04.412Z,3.53
2022-09-12T20:23:06.628Z,2.95
2022-09-12T20:28:08.490Z,2.90
2022-09-12T20:33:10.304Z,2.83
2022-09-12T20:38:12.483Z,2.40
2022-09-12T20:43:14.339Z,2.63
2022-09-12T20:48:16.158Z,2.67
2022-09-12T20:53:18.069Z,2.58
2022-09-12T20:58:21.509Z,2.90
2022-09-12T21:03:23.420Z,2.75
2022-09-12T21:08:25.267Z,2.85
2022-09-12T21:13:27.133Z,4.35
2022-09-12T21:18:29.578Z,2.95
2022-09-12T21:23:32.170Z,2.90
2022-09-12T21:28:34.393Z,3.05
2022-09-12T21:33:36.636Z,3.92
2022-09-12T21:38:38.516Z,3.58
2022-09-12T21:43:41.075Z,4.78
2022-09-12T21:48:43.529Z,2.58
2022-09-12T21:53:45.820Z,2.90
2022-09-12T21:58:47.659Z,2.88
2022-09-12T22:03:50.228Z,3.40
2022-09-12T22:08:52.022Z,2.60
2022-09-12T22:13:53.899Z,3.10
2022-09-12T22:18:56.255Z,2.70
2022-09-12T22:24:16.679Z,2.63
2022-09-12T22:29:18.869Z,2.83
2022-09-12T22:34:20.778Z,3.15
2022-09-12T22:39:23.520Z,2.60
2022-09-12T22:44:25.338Z,2.90
2022-09-12T22:49:27.134Z,2.85
2022-09-12T22:54:28.895Z,2.42
2022-09-12T22:59:31.053Z,2.50
2022-09-12T23:04:33.089Z,2.38
2022-09-12T23:09:35.628Z,2.42
2022-09-12T23:14:37.564Z,2.72
2022-09-12T23:19:39.426Z,2.55
2022-09-12T23:24:41.211Z,2.30
2022-09-12T23:29:43.052Z,2.83
2022-09-12T23:34:46.506Z,2.42
2022-09-12T23:39:49.784Z,2.40
2022-09-12T23:44:51.665Z,2.60
2022-09-12T23:49:53.462Z,2.85
2022-09-12T23:54:55.242Z,2.33
2022-09-12T23:59:57.285Z,3.15
